Forside
METAR-TAF:

METAR-TAF

Lufthavne :

Såtenäs, Sverige

Breddekreds: 58-26N, længdekreds: 012-42E, højde: 54 m

Aktuelle vejr

Denne rapport blev lavet for 20 minutter siden, kl. 04:20 UTC
Vind 8 kt fra sydsydvest
Temperatur 6°C
Fugtighed 100%
Tryk 1005 hPa
Sigt 10 km eller mere

METAR: ESIB 180420Z AUTO 21008KT 9999 OVC005/// 06/06 Q1005

Tid: 05:40 (04:40 UTC)

Vejrudsigter

Denne rapport blev lavet for 17 timer og 10 minutter siden, kl. 11:30 UTC
Foreløbig gælder fra 17 på 12 UTC til 17 på 16 UTC
Vind 12 kt fra syd
Sigt 10 km eller mere
Brudte skyer i en højde af 1200 ft
Midlertidig
fra 17 på 12 UTC til 17 på 16 UTC
Spredte skyer i en højde af 1200 ft

TAF: ESIB 171130Z 1712/1716 18012KT 9999 BKN012 TEMPO 1712/1716 SCT012 RMK MIL

Vejrobservationer og prognoser fra mere end 4000 lufthavne (METAR og TAF).

De gule og røde prikker repræsenterer de meteorologiske stationer.

Flyt musen over at se navnet på stationen.

Så klik over at se vejr observationer og prognoser.

At skifte det kort: Klik på de grønne knapper med et sort kors for at zoome ind; på den grønne knap med en bindestreg for at zoome ud; eller på de grønne pile for tilstødende kort.


METAR-TAF: